Time;durP1;ratioP1;P1;durP2;ratioP2;P2;SDS_P1;SDS_P2;PMS_P1;PMS_P2;Temp;Humidity;BMP_temperature;BMP_pressure;BME280_temperature;BME280_humidity;BME280_pressure;Samples;Min_cycle;Max_cycle;Signal;HPM_P1;HPM_P2
2022/10/22 00:01:16;;;;;;;8.73;1.35;;;11.70;99.90;;;;;;5105244;28;20099;-90
2022/10/22 00:04:03;;;;;;;2.40;0.98;;;11.70;99.90;;;;;;5101540;28;20043;-88
2022/10/22 00:06:50;;;;;;;4.20;1.08;;;11.70;99.90;;;;;;5095323;28;20044;-89
2022/10/22 00:09:37;;;;;;;0.90;0.90;;;11.70;99.90;;;;;;5105894;28;20079;-89
2022/10/22 00:12:25;;;;;;;1.55;1.10;;;11.70;99.90;;;;;;5117530;28;20096;-90
2022/10/22 00:15:12;;;;;;;2.50;1.02;;;11.70;99.90;;;;;;5111236;28;20052;-91
2022/10/22 00:18:03;;;;;;;1.00;0.90;;;11.70;99.90;;;;;;5105932;28;20075;-91
2022/10/22 00:20:59;;;;;;;2.28;0.90;;;11.70;99.90;;;;;;5089615;28;20036;-89
2022/10/22 00:23:47;;;;;;;3.40;1.13;;;11.70;99.90;;;;;;5111243;28;20093;-89
2022/10/22 00:26:34;;;;;;;1.25;0.80;;;11.70;99.90;;;;;;5111495;28;20035;-91
2022/10/22 00:29:21;;;;;;;1.13;1.02;;;11.70;99.90;;;;;;5110427;28;20047;-90
2022/10/22 00:32:09;;;;;;;1.10;0.90;;;11.70;99.90;;;;;;5113168;28;20044;-89
2022/10/22 00:34:56;;;;;;;3.63;1.30;;;11.80;99.90;;;;;;5106706;28;20115;-88
2022/10/22 00:37:44;;;;;;;2.97;1.05;;;11.80;99.90;;;;;;5108468;28;20119;-92
2022/10/22 00:40:31;;;;;;;2.45;1.40;;;11.80;99.90;;;;;;5116277;28;20066;-90
2022/10/22 00:43:18;;;;;;;1.20;1.00;;;11.80;99.90;;;;;;5119749;28;20058;-88
2022/10/22 00:46:05;;;;;;;2.97;1.33;;;11.80;99.90;;;;;;5117054;28;20047;-90
2022/10/22 00:48:56;;;;;;;2.65;1.30;;;11.80;99.90;;;;;;5100666;28;20098;-90
2022/10/22 00:51:43;;;;;;;5.30;1.38;;;11.80;99.90;;;;;;5103402;28;20068;-90
2022/10/22 00:54:33;;;;;;;5.03;1.30;;;11.80;99.90;;;;;;5103723;28;20362;-89
2022/10/22 00:57:21;;;;;;;2.55;1.30;;;11.80;99.90;;;;;;5103006;28;20051;-91
2022/10/22 01:00:11;;;;;;;6.78;2.03;;;11.80;99.90;;;;;;5086977;28;20040;-90
2022/10/22 01:02:59;;;;;;;2.88;1.33;;;11.80;99.90;;;;;;5099507;28;20345;-91
2022/10/22 01:05:52;;;;;;;5.10;1.60;;;11.80;99.90;;;;;;5089372;28;20818;-92
2022/10/22 01:09:15;;;;;;;3.30;1.45;;;11.80;99.90;;;;;;5100498;28;20181;-89
2022/10/22 01:12:13;;;;;;;2.15;1.45;;;11.80;99.90;;;;;;5103538;28;20044;-92
2022/10/22 01:15:13;;;;;;;8.13;1.50;;;11.80;99.90;;;;;;5089534;28;20520;-91
2022/10/22 01:18:09;;;;;;;2.33;1.20;;;11.80;99.90;;;;;;5104250;28;20464;-91
2022/10/22 01:21:13;;;;;;;5.28;1.42;;;11.70;99.90;;;;;;5097827;28;20049;-90
2022/10/22 01:24:12;;;;;;;2.38;1.17;;;11.80;99.90;;;;;;5090000;28;20143;-88
2022/10/22 01:27:17;;;;;;;2.75;1.27;;;11.70;99.90;;;;;;5088064;28;20043;-88
2022/10/22 01:30:09;;;;;;;1.98;1.10;;;11.70;99.90;;;;;;5103055;28;20124;-89
2022/10/22 01:33:04;;;;;;;0.98;0.75;;;11.80;99.90;;;;;;5082534;28;20141;-90
2022/10/22 01:35:52;;;;;;;2.00;1.20;;;11.80;99.90;;;;;;5091571;28;20104;-92
2022/10/22 01:38:46;;;;;;;2.20;1.02;;;11.80;99.90;;;;;;5114915;28;20048;-90
2022/10/22 01:41:38;;;;;;;1.25;1.00;;;11.80;99.90;;;;;;5097083;28;20035;-93
2022/10/22 01:44:29;;;;;;;1.50;0.98;;;11.80;99.90;;;;;;5100167;28;20113;-93
2022/10/22 01:47:36;;;;;;;2.38;1.00;;;11.80;99.90;;;;;;5086781;28;20047;-92
2022/10/22 01:50:50;;;;;;;3.13;1.15;;;11.70;99.90;;;;;;5109299;28;20109;-91
2022/10/22 01:53:57;;;;;;;1.63;1.10;;;11.70;99.90;;;;;;5129840;28;20032;-89
2022/10/22 01:57:02;;;;;;;1.63;1.15;;;11.70;99.90;;;;;;5099818;28;20051;-90
2022/10/22 02:00:07;;;;;;;1.13;1.00;;;11.70;99.90;;;;;;5113172;28;20036;-90
2022/10/22 02:03:16;;;;;;;4.32;1.48;;;11.70;99.90;;;;;;5107941;28;20054;-90
2022/10/22 02:06:14;;;;;;;2.67;1.48;;;11.70;99.90;;;;;;5105679;28;20092;-90
2022/10/22 02:09:02;;;;;;;2.05;1.27;;;11.70;99.90;;;;;;5100443;28;20139;-89
2022/10/22 02:11:53;;;;;;;4.72;1.40;;;11.70;99.90;;;;;;5103319;28;20056;-91
2022/10/22 02:14:43;;;;;;;4.30;1.30;;;11.60;99.90;;;;;;5101688;28;20052;-90
2022/10/22 02:17:35;;;;;;;2.17;1.50;;;11.60;99.90;;;;;;5091176;28;20096;-90
2022/10/22 02:20:32;;;;;;;2.25;1.48;;;11.60;99.90;;;;;;5086112;28;20093;-90
2022/10/22 02:23:23;;;;;;;4.35;1.42;;;11.60;99.90;;;;;;5085714;28;20054;-90
2022/10/22 02:26:36;;;;;;;4.75;1.55;;;11.60;99.90;;;;;;5100326;28;20079;-90
2022/10/22 02:29:33;;;;;;;1.55;1.38;;;11.60;99.90;;;;;;5098059;28;20046;-90
2022/10/22 02:32:27;;;;;;;2.85;1.67;;;11.60;99.90;;;;;;5102670;28;20131;-90
2022/10/22 02:35:18;;;;;;;7.07;1.35;;;11.60;99.90;;;;;;5089007;28;20044;-90
2022/10/22 02:38:06;;;;;;;3.97;1.80;;;11.60;99.90;;;;;;5106922;28;20417;-90
2022/10/22 02:40:53;;;;;;;2.65;1.60;;;11.60;99.90;;;;;;5089878;28;20342;-89
2022/10/22 02:43:42;;;;;;;3.25;1.25;;;11.60;99.90;;;;;;5118012;28;20100;-91
2022/10/22 02:46:29;;;;;;;1.88;1.27;;;11.60;99.90;;;;;;5109498;28;20054;-89
2022/10/22 02:49:19;;;;;;;2.88;1.50;;;11.60;99.90;;;;;;5071811;28;20080;-90
2022/10/22 02:52:11;;;;;;;3.53;1.50;;;11.60;99.90;;;;;;5097588;28;20078;-90
2022/10/22 02:54:58;;;;;;;5.30;1.55;;;11.70;99.90;;;;;;5087592;28;20071;-91
2022/10/22 02:57:45;;;;;;;0.93;0.82;;;11.70;99.90;;;;;;5106190;28;20197;-90
2022/10/22 03:00:35;;;;;;;4.15;1.10;;;11.80;99.90;;;;;;5093449;28;20047;-90
2022/10/22 03:03:22;;;;;;;1.40;0.88;;;11.80;99.90;;;;;;5090591;28;20047;-90
2022/10/22 03:06:18;;;;;;;2.28;1.00;;;11.80;99.90;;;;;;5121856;28;20062;-90
2022/10/22 03:09:10;;;;;;;4.15;1.08;;;11.80;99.90;;;;;;5119122;28;20119;-92
2022/10/22 03:16:52;;;;;;;1.73;1.13;;;11.70;99.90;;;;;;5123129;28;20138;-89
2022/10/22 03:19:45;;;;;;;3.65;1.40;;;11.60;99.90;;;;;;5092925;28;20273;-90
2022/10/22 03:22:35;;;;;;;2.65;1.63;;;11.60;99.90;;;;;;5095428;28;20044;-92
2022/10/22 03:25:36;;;;;;;9.48;4.78;;;11.60;99.90;;;;;;5121524;28;20040;-92
2022/10/22 03:28:25;;;;;;;4.47;1.48;;;11.50;99.90;;;;;;5120874;28;20066;-90
2022/10/22 03:31:13;;;;;;;1.92;1.38;;;11.60;99.90;;;;;;5115031;28;20044;-92
2022/10/22 03:34:10;;;;;;;2.35;1.27;;;11.60;99.90;;;;;;5103279;28;20453;-90
2022/10/22 03:37:01;;;;;;;6.90;1.70;;;11.60;99.90;;;;;;5086807;28;20109;-93
2022/10/22 03:39:58;;;;;;;1.88;1.40;;;11.60;99.90;;;;;;5100276;28;20063;-91
2022/10/22 03:42:48;;;;;;;3.05;1.80;;;11.60;99.90;;;;;;5124005;28;20483;-91
2022/10/22 03:45:35;;;;;;;3.05;1.83;;;11.60;99.90;;;;;;5110117;28;20093;-90
2022/10/22 03:48:28;;;;;;;5.85;1.40;;;11.60;99.90;;;;;;5114554;28;20679;-90
2022/10/22 03:51:15;;;;;;;2.85;1.38;;;11.60;99.90;;;;;;5096028;28;20044;-91
2022/10/22 03:54:03;;;;;;;4.68;1.85;;;11.50;99.90;;;;;;5102192;28;20369;-91
2022/10/22 03:56:50;;;;;;;3.28;2.10;;;11.50;99.90;;;;;;5104886;28;20772;-91
2022/10/22 03:59:44;;;;;;;1.55;1.40;;;11.50;99.90;;;;;;5104384;28;20122;-90
2022/10/22 04:02:47;;;;;;;2.83;1.30;;;11.50;99.90;;;;;;5098476;28;20032;-92
2022/10/22 04:05:42;;;;;;;2.92;1.40;;;11.50;99.90;;;;;;5112635;28;20055;-92
2022/10/22 04:08:55;;;;;;;4.80;1.38;;;11.40;99.90;;;;;;5086888;28;20424;-92
2022/10/22 04:11:47;;;;;;;1.58;1.35;;;11.40;99.90;;;;;;5105991;28;20090;-91
2022/10/22 04:14:58;;;;;;;;;;;;;;;;;;;;;
2022/10/22 04:17:59;;;;;;;1.88;1.52;;;11.40;99.90;;;;;;5102963;28;20465;-91
2022/10/22 04:20:47;;;;;;;7.63;2.45;;;11.40;99.90;;;;;;5132563;27;20069;-87
2022/10/22 04:23:34;;;;;;;2.70;1.13;;;11.40;99.90;;;;;;5117229;28;20046;-88
2022/10/22 04:26:22;;;;;;;3.90;1.52;;;11.40;99.90;;;;;;5107065;28;20040;-89
2022/10/22 04:29:10;;;;;;;2.83;1.55;;;11.40;99.90;;;;;;5091949;28;20104;-88
2022/10/22 04:32:02;;;;;;;5.85;1.60;;;11.30;99.90;;;;;;5094250;28;20082;-89
2022/10/22 04:34:52;;;;;;;2.13;1.40;;;11.30;99.90;;;;;;5100050;28;20039;-89
2022/10/22 04:37:44;;;;;;;1.73;1.05;;;11.30;99.90;;;;;;5104475;28;20358;-88
2022/10/22 04:40:31;;;;;;;2.67;1.00;;;11.30;99.90;;;;;;5096029;28;20049;-90
2022/10/22 04:43:20;;;;;;;1.60;1.17;;;11.30;99.90;;;;;;5092696;28;20069;-90
2022/10/22 04:46:11;;;;;;;4.07;1.50;;;11.30;99.90;;;;;;5109129;27;20035;-89
2022/10/22 04:48:58;;;;;;;4.97;1.52;;;11.30;99.90;;;;;;5095612;28;20066;-88
2022/10/22 04:51:45;;;;;;;1.38;1.13;;;11.30;99.90;;;;;;5108052;28;20067;-89
2022/10/22 04:54:32;;;;;;;2.50;1.45;;;11.30;99.90;;;;;;5121968;28;20054;-89
2022/10/22 04:57:19;;;;;;;9.00;2.05;;;11.30;99.90;;;;;;5104481;28;20048;-90
2022/10/22 05:00:08;;;;;;;1.98;1.52;;;11.30;99.90;;;;;;5097877;28;20050;-89
2022/10/22 05:02:57;;;;;;;2.55;1.80;;;11.20;99.90;;;;;;5112822;28;20060;-89
2022/10/22 05:05:47;;;;;;;2.53;1.67;;;11.20;99.90;;;;;;5111427;28;20048;-89
2022/10/22 05:08:37;;;;;;;3.92;2.05;;;11.20;99.90;;;;;;5102943;28;20040;-90
2022/10/22 05:11:33;;;;;;;2.03;1.60;;;11.20;99.90;;;;;;5102795;28;20039;-91
2022/10/22 05:14:25;;;;;;;3.67;1.88;;;11.20;99.90;;;;;;5091912;28;20488;-93
2022/10/22 05:17:12;;;;;;;3.40;1.70;;;11.30;99.90;;;;;;5089211;28;20050;-92
2022/10/22 05:19:59;;;;;;;2.17;1.60;;;11.20;99.90;;;;;;5112043;28;20058;-94
2022/10/22 05:22:47;;;;;;;2.53;1.52;;;11.20;99.90;;;;;;5109461;28;20353;-90
2022/10/22 05:25:38;;;;;;;2.70;1.20;;;11.20;99.90;;;;;;5101338;28;20066;-92
2022/10/22 05:28:26;;;;;;;4.63;1.10;;;11.20;99.90;;;;;;5099571;28;20054;-92
2022/10/22 05:31:15;;;;;;;2.75;1.20;;;11.20;99.90;;;;;;5102701;28;20112;-90
2022/10/22 05:34:03;;;;;;;1.45;1.23;;;11.30;99.90;;;;;;5105837;28;20101;-91
2022/10/22 05:36:50;;;;;;;2.83;1.13;;;11.30;99.90;;;;;;5111736;28;20118;-91
2022/10/22 05:39:56;;;;;;;;;;;;;;;;;;;;;
2022/10/22 05:43:03;;;;;;;1.30;1.20;;;11.30;99.90;;;;;;5118045;28;20047;-91
2022/10/22 05:46:02;;;;;;;2.20;1.10;;;11.30;99.90;;;;;;5096601;28;20130;-91
2022/10/22 05:49:31;;;;;;;4.20;1.37;;;11.30;99.90;;;;;;5102395;28;20139;-92
2022/10/22 05:52:18;;;;;;;2.78;1.10;;;11.30;99.90;;;;;;5093505;28;20048;-92
2022/10/22 05:55:06;;;;;;;6.47;1.30;;;11.40;99.90;;;;;;5086930;28;20040;-92
2022/10/22 05:57:53;;;;;;;1.33;1.02;;;11.40;99.90;;;;;;5099538;28;20047;-91
2022/10/22 06:00:44;;;;;;;1.83;1.20;;;11.40;99.90;;;;;;5090528;28;20096;-92
2022/10/22 06:03:40;;;;;;;2.40;1.05;;;11.40;99.90;;;;;;5107576;28;20067;-90
2022/10/22 06:06:38;;;;;;;1.20;1.10;;;11.40;99.90;;;;;;5105753;28;20066;-92
2022/10/22 06:09:37;;;;;;;2.63;1.40;;;11.40;99.90;;;;;;5115127;28;20048;-89
2022/10/22 06:12:26;;;;;;;5.15;1.10;;;11.40;99.90;;;;;;5116277;28;20173;-90
2022/10/22 06:15:16;;;;;;;3.78;1.48;;;11.50;99.90;;;;;;5086708;28;20076;-89
2022/10/22 06:18:03;;;;;;;4.35;1.48;;;11.50;99.90;;;;;;5098167;28;20047;-90
2022/10/22 06:20:50;;;;;;;3.42;1.20;;;11.50;99.90;;;;;;5090467;28;20080;-90
2022/10/22 06:23:39;;;;;;;2.83;1.25;;;11.50;99.90;;;;;;5083630;28;20114;-90
2022/10/22 06:26:26;;;;;;;2.03;0.90;;;11.60;99.90;;;;;;5091490;28;20460;-90
2022/10/22 06:29:13;;;;;;;2.08;0.82;;;11.60;99.90;;;;;;5096455;28;20043;-88
2022/10/22 06:32:07;;;;;;;2.15;1.10;;;11.70;99.90;;;;;;5110865;28;20044;-88
2022/10/22 06:34:56;;;;;;;7.53;3.30;;;11.70;99.90;;;;;;5111262;28;20054;-91
2022/10/22 06:37:46;;;;;;;9.18;3.97;;;11.80;99.90;;;;;;5108235;28;20052;-89
2022/10/22 06:40:33;;;;;;;9.77;4.05;;;11.80;99.90;;;;;;5102177;28;20054;-89
2022/10/22 06:43:23;;;;;;;6.32;1.50;;;11.80;99.90;;;;;;5103455;28;20089;-89
2022/10/22 06:46:16;;;;;;;2.30;1.40;;;11.80;99.90;;;;;;5094132;28;20044;-89
2022/10/22 06:49:06;;;;;;;5.65;1.00;;;11.80;99.90;;;;;;5088864;28;20059;-91
2022/10/22 06:51:53;;;;;;;1.70;0.93;;;11.90;99.90;;;;;;5110480;28;20093;-89
2022/10/22 06:54:43;;;;;;;2.90;0.85;;;11.90;99.90;;;;;;5116271;28;20062;-90
2022/10/22 06:57:32;;;;;;;1.65;0.98;;;11.90;99.90;;;;;;5121022;28;20040;-89
2022/10/22 07:00:20;;;;;;;0.75;0.75;;;12.00;99.90;;;;;;5088003;28;20051;-89
2022/10/22 07:03:13;;;;;;;3.38;1.13;;;12.00;99.90;;;;;;5100841;28;20114;-90
2022/10/22 07:06:02;;;;;;;3.50;1.40;;;12.00;99.90;;;;;;5091571;28;20167;-90
2022/10/22 07:08:50;;;;;;;4.97;1.00;;;12.10;99.90;;;;;;5103360;28;20175;-89
2022/10/22 07:11:44;;;;;;;3.20;1.40;;;12.10;99.90;;;;;;5102467;28;20040;-90
2022/10/22 07:14:34;;;;;;;2.17;0.93;;;12.10;99.90;;;;;;5098281;28;20048;-93
2022/10/22 07:17:21;;;;;;;1.92;1.25;;;12.10;99.90;;;;;;5093793;28;20081;-88
2022/10/22 07:20:09;;;;;;;1.75;1.27;;;12.10;99.90;;;;;;5110914;27;20079;-90
2022/10/22 07:22:57;;;;;;;5.22;1.65;;;12.20;99.90;;;;;;5112230;27;20044;-89
2022/10/22 07:25:44;;;;;;;3.10;1.33;;;12.20;99.90;;;;;;5097796;27;20040;-89
2022/10/22 07:28:32;;;;;;;1.80;1.38;;;12.20;99.90;;;;;;5098838;28;20048;-88
2022/10/22 07:31:19;;;;;;;7.05;1.23;;;12.30;99.90;;;;;;5094732;28;20052;-88
2022/10/22 07:34:07;;;;;;;1.25;1.15;;;12.30;99.90;;;;;;5116186;28;20131;-91
2022/10/22 07:36:56;;;;;;;8.75;1.80;;;12.40;99.90;;;;;;5114366;28;20048;-89
2022/10/22 07:39:45;;;;;;;2.47;1.40;;;12.40;99.90;;;;;;5109795;28;20173;-90
2022/10/22 07:42:32;;;;;;;3.20;1.27;;;12.50;99.90;;;;;;5084408;28;20044;-89
2022/10/22 07:45:22;;;;;;;3.08;1.45;;;12.50;99.90;;;;;;5114930;28;20069;-89
2022/10/22 07:48:12;;;;;;;6.30;1.63;;;12.50;99.90;;;;;;5110699;28;20066;-90
2022/10/22 07:51:02;;;;;;;5.38;1.52;;;12.50;99.90;;;;;;5101908;28;20118;-89
2022/10/22 07:53:51;;;;;;;1.58;1.30;;;12.50;99.90;;;;;;5098613;28;20050;-89
2022/10/22 07:56:38;;;;;;;1.55;1.20;;;12.50;99.90;;;;;;5092494;28;20453;-89
2022/10/22 07:59:26;;;;;;;2.53;1.52;;;12.60;86.20;;;;;;5110881;28;20051;-88
2022/10/22 08:02:19;;;;;;;3.95;1.40;;;12.70;81.30;;;;;;5110576;28;20039;-93
2022/10/22 08:05:31;;;;;;;1.83;1.38;;;12.70;17.30;;;;;;5106580;28;20181;-92
2022/10/22 08:08:21;;;;;;;9.45;1.90;;;12.80;1.00;;;;;;5088981;28;20071;-92
2022/10/22 08:11:22;;;;;;;3.30;1.70;;;12.90;1.00;;;;;;5099626;28;20139;-91
2022/10/22 08:14:15;;;;;;;3.60;1.80;;;13.00;99.90;;;;;;5103179;28;20043;-88
2022/10/22 08:17:10;;;;;;;2.83;1.50;;;13.00;99.90;;;;;;5105391;28;20047;-91
2022/10/22 08:20:22;;;;;;;9.30;1.95;;;13.30;7.40;;;;;;5105671;28;20058;-90
2022/10/22 08:23:17;;;;;;;1.88;1.48;;;13.70;1.00;;;;;;5112911;28;20044;-90
2022/10/22 08:26:24;;;;;;;3.00;1.30;;;14.40;1.00;;;;;;5108831;28;20119;-91
2022/10/22 08:29:13;;;;;;;1.95;1.10;;;15.00;1.00;;;;;;5101832;28;20059;-90
2022/10/22 08:32:01;;;;;;;2.08;1.20;;;15.10;99.90;;;;;;5099355;28;20044;-92
2022/10/22 08:34:49;;;;;;;4.03;1.58;;;14.80;99.90;;;;;;5099898;28;20043;-90
2022/10/22 08:37:36;;;;;;;3.60;1.60;;;14.70;99.90;;;;;;5110016;28;20093;-88
2022/10/22 08:40:37;;;;;;;3.58;1.45;;;14.60;78.70;;;;;;5121116;28;20046;-88
2022/10/22 08:44:00;;;;;;;2.75;1.30;;;15.10;99.90;;;;;;5096842;28;20089;-91
2022/10/22 08:47:08;;;;;;;4.93;1.50;;;15.60;39.80;;;;;;5098406;28;20075;-89
2022/10/22 08:49:59;;;;;;;1.40;1.20;;;15.90;99.90;;;;;;5100680;28;20135;-90
2022/10/22 08:52:55;;;;;;;1.50;0.95;;;16.00;99.90;;;;;;5092773;28;20044;-88
2022/10/22 08:55:45;;;;;;;2.45;1.10;;;16.10;59.90;;;;;;5103462;28;20039;-90
2022/10/22 08:58:58;;;;;;;3.33;0.90;;;16.80;1.00;;;;;;5104387;28;20137;-88
2022/10/22 09:01:48;;;;;;;2.45;1.00;;;17.50;99.90;;;;;;5084930;28;20435;-89
2022/10/22 09:04:50;;;;;;;3.67;0.90;;;17.70;99.90;;;;;;5097017;28;20054;-89
2022/10/22 09:07:47;;;;;;;1.95;1.08;;;17.80;99.90;;;;;;5104149;28;20036;-92
2022/10/22 09:10:38;;;;;;;1.20;1.00;;;18.10;99.90;;;;;;5094110;28;20050;-89
2022/10/22 09:13:26;;;;;;;3.20;0.93;;;18.70;27.50;;;;;;5096676;28;20048;-89
2022/10/22 09:16:24;;;;;;;2.53;0.70;;;18.90;1.00;;;;;;5097690;28;20118;-89
2022/10/22 09:19:23;;;;;;;3.75;1.20;;;18.70;1.00;;;;;;5100702;28;20049;-86
2022/10/22 09:22:13;;;;;;;1.25;0.90;;;17.80;1.00;;;;;;5086585;28;20040;-90
2022/10/22 09:25:24;;;;;;;2.47;1.08;;;17.90;1.00;;;;;;5102723;28;20036;-89
2022/10/22 09:28:17;;;;;;;3.03;0.70;;;18.40;1.00;;;;;;5096052;28;20035;-88
2022/10/22 09:31:13;;;;;;;2.13;0.70;;;19.30;1.00;;;;;;5095337;28;20055;-89
2022/10/22 09:34:06;;;;;;;2.60;0.70;;;20.10;1.00;;;;;;5092966;28;20378;-89
2022/10/22 09:37:00;;;;;;;0.85;0.60;;;20.40;1.00;;;;;;5084266;28;20051;-91
2022/10/22 09:39:51;;;;;;;2.58;0.70;;;20.40;99.90;;;;;;5108455;28;20356;-91
2022/10/22 09:42:47;;;;;;;1.02;0.70;;;19.80;99.90;;;;;;5109615;28;20054;-89
2022/10/22 09:45:45;;;;;;;1.38;1.00;;;20.00;99.90;;;;;;5090999;28;20048;-91
2022/10/22 09:48:41;;;;;;;5.15;1.13;;;20.50;99.90;;;;;;5084546;28;20048;-91
2022/10/22 09:51:40;;;;;;;1.55;0.82;;;20.60;99.90;;;;;;5096715;28;20059;-90
2022/10/22 09:54:41;;;;;;;2.60;0.77;;;20.50;99.90;;;;;;5082778;28;20116;-90
2022/10/22 09:57:31;;;;;;;1.58;0.80;;;20.50;99.90;;;;;;5100889;28;20062;-91
2022/10/22 10:00:25;;;;;;;1.95;0.82;;;20.60;99.90;;;;;;5111670;28;20053;-90
2022/10/22 10:03:26;;;;;;;1.67;0.82;;;20.50;99.90;;;;;;5101712;28;20047;-90
2022/10/22 10:06:24;;;;;;;2.25;0.82;;;20.50;99.90;;;;;;5101492;28;20411;-91
2022/10/22 10:09:20;;;;;;;1.73;0.52;;;20.80;99.90;;;;;;5097256;28;20780;-92
2022/10/22 10:12:48;;;;;;;1.30;0.68;;;21.40;99.90;;;;;;5098738;28;20196;-90
2022/10/22 10:15:45;;;;;;;1.08;0.68;;;21.50;99.90;;;;;;5095491;28;20055;-91
2022/10/22 10:18:51;;;;;;;2.15;1.08;;;22.00;99.90;;;;;;5085533;28;20113;-91
2022/10/22 10:21:56;;;;;;;3.35;0.80;;;21.90;99.90;;;;;;5118420;28;20051;-88
2022/10/22 10:25:24;;;;;;;2.53;0.60;;;22.00;99.90;;;;;;5108138;28;20127;-89
2022/10/22 10:28:15;;;;;;;4.50;0.75;;;22.90;99.90;;;;;;5097293;28;20051;-90
2022/10/22 10:31:13;;;;;;;2.28;0.82;;;22.80;99.90;;;;;;5119664;28;20188;-90
2022/10/22 10:34:03;;;;;;;2.38;0.60;;;23.00;99.90;;;;;;5119760;28;20062;-88
2022/10/22 10:37:03;;;;;;;2.35;0.80;;;22.90;99.90;;;;;;5099328;28;20054;-90
2022/10/22 10:40:28;;;;;;;7.03;1.10;;;23.40;99.90;;;;;;5103498;28;20048;-91
2022/10/22 10:43:20;;;;;;;1.50;0.63;;;23.50;99.90;;;;;;5089251;28;20118;-90
2022/10/22 10:46:23;;;;;;;2.00;0.60;;;23.70;99.90;;;;;;5108607;28;20123;-89
2022/10/22 10:49:13;;;;;;;1.23;0.70;;;23.30;99.90;;;;;;5095891;28;20046;-91
2022/10/22 10:52:46;;;;;;;;;;;;;;;;;;;;;
2022/10/22 10:56:28;;;;;;;1.83;0.88;;;23.20;99.90;;;;;;5104315;28;20132;-87
2022/10/22 10:59:43;;;;;;;2.55;0.70;;;24.60;99.90;;;;;;5090627;28;20457;-89
2022/10/22 11:02:49;;;;;;;5.40;0.88;;;24.50;99.90;;;;;;5103225;28;20417;-87
2022/10/22 11:05:43;;;;;;;4.93;0.90;;;25.40;99.90;;;;;;5109697;28;20122;-88
2022/10/22 11:08:35;;;;;;;5.40;0.93;;;25.40;99.90;;;;;;5087912;28;20389;-88
2022/10/22 11:12:06;;;;;;;8.38;1.10;;;25.20;99.90;;;;;;5105910;28;20130;-89
2022/10/22 11:15:38;;;;;;;3.17;1.00;;;24.70;99.90;;;;;;5103868;28;20071;-88
2022/10/22 11:18:50;;;;;;;3.20;0.70;;;25.40;99.90;;;;;;5086179;28;20044;-88
2022/10/22 11:21:50;;;;;;;3.53;0.70;;;25.40;99.90;;;;;;5103043;28;20146;-89
2022/10/22 11:24:52;;;;;;;1.65;0.80;;;25.90;99.90;;;;;;5106445;28;20103;-88
2022/10/22 11:28:22;;;;;;;7.43;1.48;;;26.50;99.90;;;;;;5127473;28;20107;-91
2022/10/22 11:34:55;;;;;;;3.20;0.77;;;26.80;80.40;;;;;;5087965;28;20274;-88
2022/10/22 11:37:46;;;;;;;2.88;0.80;;;25.70;77.60;;;;;;5105136;28;20054;-89
2022/10/22 11:40:57;;;;;;;7.10;0.90;;;24.70;78.10;;;;;;5102193;28;20035;-87
2022/10/22 11:44:14;;;;;;;2.00;0.90;;;23.40;79.90;;;;;;5105218;28;20047;-90
2022/10/22 11:47:18;;;;;;;3.42;0.77;;;21.70;79.00;;;;;;5090928;28;20679;-89
2022/10/22 11:50:21;;;;;;;4.05;0.98;;;20.80;81.60;;;;;;5091638;28;20097;-90
2022/10/22 11:53:12;;;;;;;1.60;0.60;;;20.90;97.80;;;;;;5109433;28;20051;-90
2022/10/22 11:56:53;;;;;;;4.95;1.13;;;21.80;95.80;;;;;;5106565;28;20055;-91
2022/10/22 11:59:46;;;;;;;6.95;0.68;;;23.50;99.20;;;;;;5110670;28;20124;-89
2022/10/22 12:02:41;;;;;;;5.18;0.80;;;26.00;82.00;;;;;;5117985;28;20059;-90
2022/10/22 12:09:12;;;;;;;3.22;0.77;;;28.10;47.90;;;;;;5097557;28;20032;-89
2022/10/22 12:12:19;;;;;;;3.63;1.15;;;28.10;40.70;;;;;;5104124;28;20053;-90
2022/10/22 12:15:27;;;;;;;2.35;0.93;;;28.00;33.70;;;;;;5093081;28;20479;-90
2022/10/22 12:18:16;;;;;;;2.70;0.70;;;28.90;29.50;;;;;;5089846;28;20109;-87
2022/10/22 12:21:03;;;;;;;1.70;0.45;;;29.80;24.20;;;;;;5101652;28;20062;-89
2022/10/22 12:23:50;;;;;;;1.55;0.80;;;29.50;6.90;;;;;;5090304;28;20054;-90
2022/10/22 12:26:40;;;;;;;2.13;0.82;;;29.10;2.60;;;;;;5119227;28;20039;-88
2022/10/22 12:29:31;;;;;;;2.65;1.25;;;28.40;1.00;;;;;;5104790;28;20039;-90
2022/10/22 12:32:19;;;;;;;1.15;0.60;;;29.10;1.30;;;;;;5104469;28;20059;-89
2022/10/22 12:35:16;;;;;;;4.82;1.10;;;29.30;1.00;;;;;;5114626;28;20048;-90
2022/10/22 12:38:15;;;;;;;7.57;3.30;;;28.60;1.00;;;;;;5110345;28;20055;-90
2022/10/22 12:41:03;;;;;;;3.30;1.20;;;27.60;1.00;;;;;;5088401;28;20044;-90
2022/10/22 12:43:58;;;;;;;2.70;1.00;;;26.70;1.00;;;;;;5101764;28;20040;-90
2022/10/22 12:46:49;;;;;;;7.55;1.25;;;26.40;1.00;;;;;;5101178;28;20123;-89
2022/10/22 12:49:46;;;;;;;3.42;0.80;;;26.40;1.00;;;;;;5106539;28;20100;-91
2022/10/22 12:52:34;;;;;;;2.80;0.75;;;26.20;1.00;;;;;;5104250;28;20051;-91
2022/10/22 12:55:25;;;;;;;2.83;1.00;;;25.70;1.00;;;;;;5115308;28;20449;-88
2022/10/22 12:58:17;;;;;;;9.00;6.43;;;26.30;1.00;;;;;;5104084;28;20105;-90
2022/10/22 13:01:11;;;;;;;7.65;1.85;;;26.40;1.00;;;;;;5096805;28;20035;-89
2022/10/22 13:04:18;;;;;;;2.72;0.77;;;26.20;1.00;;;;;;5105048;28;20039;-90
2022/10/22 13:07:11;;;;;;;3.28;1.27;;;25.80;1.00;;;;;;5097005;28;20111;-91
2022/10/22 13:10:26;;;;;;;2.40;1.10;;;25.20;1.00;;;;;;5116092;28;20040;-91
2022/10/22 13:14:05;;;;;;;2.83;0.98;;;25.30;1.00;;;;;;5101989;28;20044;-90
2022/10/22 13:17:16;;;;;;;3.75;0.80;;;26.30;1.00;;;;;;5014793;28;20066;-91
2022/10/22 13:20:17;;;;;;;3.17;0.73;;;26.40;1.00;;;;;;5002595;28;20066;-89
2022/10/22 13:23:19;;;;;;;3.72;0.77;;;26.30;1.00;;;;;;5093335;28;20040;-91
2022/10/22 13:26:17;;;;;;;3.47;0.90;;;25.70;1.00;;;;;;5109093;28;20183;-88
2022/10/22 13:29:13;;;;;;;1.38;0.63;;;25.70;1.00;;;;;;5093907;28;20111;-89
2022/10/22 13:32:01;;;;;;;6.85;1.27;;;25.50;1.00;;;;;;5110109;28;20044;-89
2022/10/22 13:34:48;;;;;;;3.28;0.80;;;25.60;1.00;;;;;;5082363;28;20123;-89
2022/10/22 13:37:37;;;;;;;2.38;0.80;;;25.50;1.00;;;;;;5100081;28;20044;-90
2022/10/22 13:40:25;;;;;;;5.15;0.88;;;25.60;1.00;;;;;;5101611;28;20067;-89
2022/10/22 13:43:15;;;;;;;3.50;0.90;;;25.40;1.00;;;;;;5116583;28;20051;-88
2022/10/22 13:46:10;;;;;;;0.80;0.40;;;25.80;1.00;;;;;;5090645;28;20047;-90
2022/10/22 13:48:58;;;;;;;4.65;1.13;;;26.40;1.00;;;;;;5112540;28;20039;-92
2022/10/22 13:51:46;;;;;;;4.78;0.80;;;26.60;1.00;;;;;;5087081;28;20061;-88
2022/10/22 13:54:34;;;;;;;3.45;0.80;;;26.80;1.00;;;;;;5107272;28;20051;-88
2022/10/22 13:57:21;;;;;;;3.25;0.70;;;27.70;1.00;;;;;;5114910;28;20085;-91
2022/10/22 14:10:53;;;;;;;9.25;1.30;;;27.20;1.00;;;;;;6300080;22;575511;-91
2022/10/22 14:13:43;;;;;;;2.90;0.77;;;26.30;1.00;;;;;;6285810;22;20106;-91
2022/10/22 14:16:33;;;;;;;4.60;0.93;;;26.00;1.00;;;;;;6289948;22;20047;-91
2022/10/22 14:19:26;;;;;;;4.80;0.70;;;26.70;1.00;;;;;;6290108;22;20020;-90
2022/10/22 14:22:27;;;;;;;2.05;0.70;;;27.10;1.00;;;;;;6288399;22;20031;-90
2022/10/22 14:25:25;;;;;;;10.27;1.55;;;27.50;1.00;;;;;;6289704;22;20030;-89
2022/10/22 14:28:13;;;;;;;7.05;0.93;;;26.90;1.00;;;;;;6291071;22;20024;-90
2022/10/22 14:31:01;;;;;;;2.65;0.93;;;26.50;1.00;;;;;;6287471;22;20085;-90
2022/10/22 14:33:49;;;;;;;2.40;0.70;;;24.70;1.00;;;;;;6287984;22;20024;-91
2022/10/22 14:36:42;;;;;;;4.70;0.93;;;24.50;1.00;;;;;;6287727;22;20015;-88
2022/10/22 14:39:30;;;;;;;4.82;0.98;;;25.30;1.00;;;;;;6288812;22;20023;-90
2022/10/22 14:42:40;;;;;;;5.38;1.42;;;25.00;1.00;;;;;;6289661;22;20042;-91
2022/10/22 14:45:31;;;;;;;7.78;1.55;;;25.10;1.00;;;;;;6290593;22;20023;-88
2022/10/22 14:48:21;;;;;;;3.97;0.70;;;25.20;1.00;;;;;;6288221;22;20093;-90
2022/10/22 14:51:16;;;;;;;4.30;0.82;;;24.60;1.00;;;;;;6291964;22;20023;-90
2022/10/22 14:54:04;;;;;;;2.10;0.85;;;24.10;1.00;;;;;;6290092;22;20387;-91
2022/10/22 14:56:52;;;;;;;3.13;1.20;;;23.80;1.00;;;;;;6286499;22;20024;-89
2022/10/22 14:59:40;;;;;;;2.88;1.02;;;23.10;1.00;;;;;;6288775;22;20103;-91
2022/10/22 15:02:27;;;;;;;2.17;0.90;;;22.80;1.00;;;;;;6288966;22;20023;-90
2022/10/22 15:05:16;;;;;;;3.03;1.10;;;23.00;1.00;;;;;;6289197;22;20113;-88
2022/10/22 15:08:04;;;;;;;11.80;4.55;;;23.20;1.00;;;;;;6291301;22;20031;-90
2022/10/22 15:11:40;;;;;;;3.30;1.58;;;23.20;1.00;;;;;;6284320;22;20027;-92
2022/10/22 15:14:29;;;;;;;1.80;1.05;;;23.20;1.00;;;;;;6280632;22;20085;-90
2022/10/22 15:17:22;;;;;;;4.32;1.50;;;23.10;1.00;;;;;;6282063;22;20418;-88
2022/10/22 15:20:12;;;;;;;3.90;1.27;;;22.70;1.00;;;;;;6281934;22;20378;-89
2022/10/22 15:23:00;;;;;;;2.22;0.70;;;22.50;1.00;;;;;;6281632;22;20024;-92
2022/10/22 15:25:47;;;;;;;2.80;0.98;;;22.50;1.00;;;;;;6280482;22;20327;-91
2022/10/22 15:28:36;;;;;;;7.00;0.95;;;22.60;1.00;;;;;;6282250;22;20034;-90
2022/10/22 15:31:45;;;;;;;3.75;0.88;;;22.20;1.00;;;;;;6278419;22;20024;-88
2022/10/22 15:34:34;;;;;;;6.68;1.15;;;22.30;1.00;;;;;;6281769;22;20024;-88
2022/10/22 15:37:22;;;;;;;2.50;1.00;;;22.10;1.00;;;;;;6282855;22;20038;-90
2022/10/22 15:40:12;;;;;;;6.40;1.30;;;21.90;1.00;;;;;;6281415;22;20020;-91